sensor_id;sensor_type;location;lat;lon;timestamp;P1;durP1;ratioP1;P2;durP2;ratioP2
47287;SDS011;33020;53.008;13.558;2022-12-29T00:01:59;5.57;;;3.07;;
47287;SDS011;33020;53.008;13.558;2022-12-29T00:04:26;3.23;;;2.33;;
47287;SDS011;33020;53.008;13.558;2022-12-29T00:06:53;4.83;;;3.20;;
47287;SDS011;33020;53.008;13.558;2022-12-29T00:09:20;4.33;;;2.97;;
47287;SDS011;33020;53.008;13.558;2022-12-29T00:11:47;5.70;;;3.00;;
47287;SDS011;33020;53.008;13.558;2022-12-29T00:14:14;4.00;;;2.80;;
47287;SDS011;33020;53.008;13.558;2022-12-29T00:16:59;4.97;;;2.47;;
47287;SDS011;33020;53.008;13.558;2022-12-29T00:19:27;4.37;;;3.10;;
47287;SDS011;33020;53.008;13.558;2022-12-29T00:22:13;3.93;;;3.40;;
47287;SDS011;33020;53.008;13.558;2022-12-29T00:25:00;7.53;;;3.13;;
47287;SDS011;33020;53.008;13.558;2022-12-29T00:27:35;5.27;;;3.23;;
47287;SDS011;33020;53.008;13.558;2022-12-29T00:30:22;5.00;;;2.97;;
47287;SDS011;33020;53.008;13.558;2022-12-29T00:33:11;5.03;;;3.70;;
47287;SDS011;33020;53.008;13.558;2022-12-29T00:36:02;4.00;;;3.07;;
47287;SDS011;33020;53.008;13.558;2022-12-29T00:38:29;4.23;;;3.03;;
47287;SDS011;33020;53.008;13.558;2022-12-29T00:41:16;3.43;;;2.50;;
47287;SDS011;33020;53.008;13.558;2022-12-29T00:44:01;4.67;;;3.13;;
47287;SDS011;33020;53.008;13.558;2022-12-29T00:46:35;4.17;;;3.00;;
47287;SDS011;33020;53.008;13.558;2022-12-29T00:49:06;4.57;;;3.03;;
47287;SDS011;33020;53.008;13.558;2022-12-29T00:51:52;3.40;;;2.90;;
47287;SDS011;33020;53.008;13.558;2022-12-29T00:54:19;5.27;;;3.03;;
47287;SDS011;33020;53.008;13.558;2022-12-29T00:56:47;3.50;;;2.80;;
47287;SDS011;33020;53.008;13.558;2022-12-29T00:59:14;5.87;;;2.60;;
47287;SDS011;33020;53.008;13.558;2022-12-29T01:01:43;4.77;;;2.53;;
47287;SDS011;33020;53.008;13.558;2022-12-29T01:04:10;4.87;;;2.87;;
47287;SDS011;33020;53.008;13.558;2022-12-29T01:06:38;3.37;;;2.20;;
47287;SDS011;33020;53.008;13.558;2022-12-29T01:09:06;3.20;;;2.67;;
47287;SDS011;33020;53.008;13.558;2022-12-29T01:11:51;5.10;;;2.70;;
47287;SDS011;33020;53.008;13.558;2022-12-29T01:14:18;3.20;;;2.23;;
47287;SDS011;33020;53.008;13.558;2022-12-29T01:16:45;4.27;;;2.53;;
47287;SDS011;33020;53.008;13.558;2022-12-29T01:19:15;3.73;;;2.90;;
47287;SDS011;33020;53.008;13.558;2022-12-29T01:21:43;3.33;;;2.40;;
47287;SDS011;33020;53.008;13.558;2022-12-29T01:24:10;4.20;;;2.60;;
47287;SDS011;33020;53.008;13.558;2022-12-29T01:26:37;4.10;;;2.73;;
47287;SDS011;33020;53.008;13.558;2022-12-29T01:29:04;4.40;;;2.10;;
47287;SDS011;33020;53.008;13.558;2022-12-29T01:31:30;5.07;;;2.50;;
47287;SDS011;33020;53.008;13.558;2022-12-29T01:33:57;5.23;;;2.60;;
47287;SDS011;33020;53.008;13.558;2022-12-29T01:36:24;4.43;;;2.80;;
47287;SDS011;33020;53.008;13.558;2022-12-29T01:38:51;5.43;;;3.00;;
47287;SDS011;33020;53.008;13.558;2022-12-29T01:41:18;4.73;;;3.10;;
47287;SDS011;33020;53.008;13.558;2022-12-29T01:43:52;4.20;;;2.50;;
47287;SDS011;33020;53.008;13.558;2022-12-29T01:49:11;5.57;;;2.40;;
47287;SDS011;33020;53.008;13.558;2022-12-29T01:51:53;2.63;;;2.30;;
47287;SDS011;33020;53.008;13.558;2022-12-29T01:54:22;8.43;;;3.03;;
47287;SDS011;33020;53.008;13.558;2022-12-29T01:56:52;4.20;;;3.00;;
47287;SDS011;33020;53.008;13.558;2022-12-29T01:59:22;4.10;;;2.73;;
47287;SDS011;33020;53.008;13.558;2022-12-29T02:01:53;4.03;;;2.63;;
47287;SDS011;33020;53.008;13.558;2022-12-29T02:04:20;4.07;;;2.97;;
47287;SDS011;33020;53.008;13.558;2022-12-29T02:06:53;3.33;;;2.60;;
47287;SDS011;33020;53.008;13.558;2022-12-29T02:09:28;3.70;;;3.10;;
47287;SDS011;33020;53.008;13.558;2022-12-29T02:11:55;3.63;;;2.50;;
47287;SDS011;33020;53.008;13.558;2022-12-29T02:14:23;3.13;;;2.43;;
47287;SDS011;33020;53.008;13.558;2022-12-29T02:17:10;4.17;;;2.60;;
47287;SDS011;33020;53.008;13.558;2022-12-29T02:28:26;6.23;;;2.53;;
47287;SDS011;33020;53.008;13.558;2022-12-29T02:31:20;3.77;;;2.97;;
47287;SDS011;33020;53.008;13.558;2022-12-29T02:34:07;5.03;;;3.13;;
47287;SDS011;33020;53.008;13.558;2022-12-29T02:36:50;3.73;;;2.53;;
47287;SDS011;33020;53.008;13.558;2022-12-29T02:39:30;3.73;;;2.43;;
47287;SDS011;33020;53.008;13.558;2022-12-29T02:42:08;3.47;;;2.57;;
47287;SDS011;33020;53.008;13.558;2022-12-29T02:45:02;3.20;;;2.30;;
47287;SDS011;33020;53.008;13.558;2022-12-29T02:50:20;3.23;;;2.53;;
47287;SDS011;33020;53.008;13.558;2022-12-29T02:52:50;2.90;;;2.30;;
47287;SDS011;33020;53.008;13.558;2022-12-29T02:55:24;4.67;;;2.60;;
47287;SDS011;33020;53.008;13.558;2022-12-29T03:03:36;4.27;;;2.80;;
47287;SDS011;33020;53.008;13.558;2022-12-29T03:11:58;5.37;;;2.60;;
47287;SDS011;33020;53.008;13.558;2022-12-29T03:17:33;3.23;;;2.50;;
47287;SDS011;33020;53.008;13.558;2022-12-29T03:20:06;3.77;;;2.33;;
47287;SDS011;33020;53.008;13.558;2022-12-29T03:22:36;4.60;;;2.37;;
47287;SDS011;33020;53.008;13.558;2022-12-29T03:27:39;3.30;;;2.57;;
47287;SDS011;33020;53.008;13.558;2022-12-29T03:30:30;3.37;;;2.33;;
47287;SDS011;33020;53.008;13.558;2022-12-29T03:32:59;3.43;;;2.57;;
47287;SDS011;33020;53.008;13.558;2022-12-29T03:35:29;4.10;;;2.47;;
47287;SDS011;33020;53.008;13.558;2022-12-29T03:40:38;3.57;;;2.20;;
47287;SDS011;33020;53.008;13.558;2022-12-29T03:43:07;3.40;;;2.40;;
47287;SDS011;33020;53.008;13.558;2022-12-29T03:45:34;4.70;;;2.40;;
47287;SDS011;33020;53.008;13.558;2022-12-29T03:48:04;3.20;;;2.33;;
47287;SDS011;33020;53.008;13.558;2022-12-29T03:50:31;4.30;;;3.20;;
47287;SDS011;33020;53.008;13.558;2022-12-29T03:52:57;4.83;;;3.23;;
47287;SDS011;33020;53.008;13.558;2022-12-29T03:55:26;3.97;;;2.23;;
47287;SDS011;33020;53.008;13.558;2022-12-29T03:57:56;2.77;;;2.20;;
47287;SDS011;33020;53.008;13.558;2022-12-29T04:00:23;3.77;;;2.20;;
47287;SDS011;33020;53.008;13.558;2022-12-29T04:02:49;3.23;;;2.03;;
47287;SDS011;33020;53.008;13.558;2022-12-29T04:05:16;4.57;;;2.43;;
47287;SDS011;33020;53.008;13.558;2022-12-29T04:07:43;3.67;;;2.40;;
47287;SDS011;33020;53.008;13.558;2022-12-29T04:10:10;3.23;;;2.37;;
47287;SDS011;33020;53.008;13.558;2022-12-29T04:12:41;4.47;;;2.40;;
47287;SDS011;33020;53.008;13.558;2022-12-29T04:15:08;4.13;;;2.60;;
47287;SDS011;33020;53.008;13.558;2022-12-29T04:17:35;3.20;;;2.37;;
47287;SDS011;33020;53.008;13.558;2022-12-29T04:20:02;3.80;;;2.37;;
47287;SDS011;33020;53.008;13.558;2022-12-29T04:22:48;3.33;;;2.30;;
47287;SDS011;33020;53.008;13.558;2022-12-29T04:25:16;3.87;;;2.30;;
47287;SDS011;33020;53.008;13.558;2022-12-29T04:27:43;2.80;;;1.97;;
47287;SDS011;33020;53.008;13.558;2022-12-29T04:30:10;3.03;;;2.03;;
47287;SDS011;33020;53.008;13.558;2022-12-29T04:32:37;3.70;;;2.20;;
47287;SDS011;33020;53.008;13.558;2022-12-29T04:35:04;3.17;;;1.83;;
47287;SDS011;33020;53.008;13.558;2022-12-29T04:37:31;4.57;;;2.43;;
47287;SDS011;33020;53.008;13.558;2022-12-29T04:39:59;2.93;;;2.07;;
47287;SDS011;33020;53.008;13.558;2022-12-29T04:42:26;3.80;;;2.37;;
47287;SDS011;33020;53.008;13.558;2022-12-29T04:44:52;3.37;;;2.43;;
47287;SDS011;33020;53.008;13.558;2022-12-29T04:47:19;2.87;;;1.80;;
47287;SDS011;33020;53.008;13.558;2022-12-29T04:49:46;4.33;;;2.07;;
47287;SDS011;33020;53.008;13.558;2022-12-29T04:52:13;3.80;;;2.20;;
47287;SDS011;33020;53.008;13.558;2022-12-29T04:54:39;4.13;;;2.10;;
47287;SDS011;33020;53.008;13.558;2022-12-29T04:57:06;4.67;;;2.30;;
47287;SDS011;33020;53.008;13.558;2022-12-29T04:59:32;5.70;;;2.27;;
47287;SDS011;33020;53.008;13.558;2022-12-29T05:01:59;2.93;;;1.90;;
47287;SDS011;33020;53.008;13.558;2022-12-29T05:04:26;3.53;;;2.37;;
47287;SDS011;33020;53.008;13.558;2022-12-29T05:06:53;2.43;;;2.10;;
47287;SDS011;33020;53.008;13.558;2022-12-29T05:09:19;3.77;;;1.90;;
47287;SDS011;33020;53.008;13.558;2022-12-29T05:11:46;3.67;;;2.30;;
47287;SDS011;33020;53.008;13.558;2022-12-29T05:14:13;2.37;;;2.10;;
47287;SDS011;33020;53.008;13.558;2022-12-29T05:16:40;4.80;;;2.23;;
47287;SDS011;33020;53.008;13.558;2022-12-29T05:19:06;3.23;;;2.17;;
47287;SDS011;33020;53.008;13.558;2022-12-29T05:21:33;2.47;;;1.97;;
47287;SDS011;33020;53.008;13.558;2022-12-29T05:24:00;3.60;;;1.77;;
47287;SDS011;33020;53.008;13.558;2022-12-29T05:26:28;2.73;;;2.20;;
47287;SDS011;33020;53.008;13.558;2022-12-29T05:28:57;4.27;;;2.50;;
47287;SDS011;33020;53.008;13.558;2022-12-29T05:31:24;4.40;;;2.67;;
47287;SDS011;33020;53.008;13.558;2022-12-29T05:33:51;6.60;;;2.63;;
47287;SDS011;33020;53.008;13.558;2022-12-29T05:36:17;5.13;;;2.63;;
47287;SDS011;33020;53.008;13.558;2022-12-29T05:38:44;2.50;;;1.83;;
47287;SDS011;33020;53.008;13.558;2022-12-29T05:41:11;5.43;;;1.93;;
47287;SDS011;33020;53.008;13.558;2022-12-29T05:43:37;3.63;;;2.10;;
47287;SDS011;33020;53.008;13.558;2022-12-29T05:46:04;3.53;;;2.10;;
47287;SDS011;33020;53.008;13.558;2022-12-29T05:48:31;3.60;;;2.00;;
47287;SDS011;33020;53.008;13.558;2022-12-29T05:51:03;3.70;;;1.93;;
47287;SDS011;33020;53.008;13.558;2022-12-29T05:53:32;3.90;;;1.90;;
47287;SDS011;33020;53.008;13.558;2022-12-29T05:55:59;2.20;;;1.73;;
47287;SDS011;33020;53.008;13.558;2022-12-29T05:58:26;2.37;;;1.60;;
47287;SDS011;33020;53.008;13.558;2022-12-29T06:00:53;3.13;;;2.07;;
47287;SDS011;33020;53.008;13.558;2022-12-29T06:03:19;3.97;;;2.00;;
47287;SDS011;33020;53.008;13.558;2022-12-29T06:05:48;2.57;;;2.03;;
47287;SDS011;33020;53.008;13.558;2022-12-29T06:08:15;2.70;;;1.83;;
47287;SDS011;33020;53.008;13.558;2022-12-29T06:10:42;2.83;;;1.70;;
47287;SDS011;33020;53.008;13.558;2022-12-29T06:13:08;2.20;;;1.93;;
47287;SDS011;33020;53.008;13.558;2022-12-29T06:15:35;3.60;;;1.80;;
47287;SDS011;33020;53.008;13.558;2022-12-29T06:18:03;3.03;;;1.80;;
47287;SDS011;33020;53.008;13.558;2022-12-29T06:20:30;3.17;;;1.70;;
47287;SDS011;33020;53.008;13.558;2022-12-29T06:22:56;3.90;;;2.30;;
47287;SDS011;33020;53.008;13.558;2022-12-29T06:25:26;5.83;;;2.17;;
47287;SDS011;33020;53.008;13.558;2022-12-29T06:27:52;3.53;;;2.10;;
47287;SDS011;33020;53.008;13.558;2022-12-29T06:30:19;2.50;;;1.90;;
47287;SDS011;33020;53.008;13.558;2022-12-29T06:32:46;2.83;;;1.73;;
47287;SDS011;33020;53.008;13.558;2022-12-29T06:35:13;4.07;;;1.80;;
47287;SDS011;33020;53.008;13.558;2022-12-29T06:37:40;3.97;;;1.90;;
47287;SDS011;33020;53.008;13.558;2022-12-29T06:40:06;2.17;;;1.73;;
47287;SDS011;33020;53.008;13.558;2022-12-29T06:42:33;2.87;;;1.63;;
47287;SDS011;33020;53.008;13.558;2022-12-29T06:45:00;2.37;;;1.80;;
47287;SDS011;33020;53.008;13.558;2022-12-29T06:47:27;3.13;;;2.17;;
47287;SDS011;33020;53.008;13.558;2022-12-29T06:49:54;3.30;;;1.70;;
47287;SDS011;33020;53.008;13.558;2022-12-29T06:52:21;3.00;;;1.80;;
47287;SDS011;33020;53.008;13.558;2022-12-29T06:54:50;2.37;;;1.83;;
47287;SDS011;33020;53.008;13.558;2022-12-29T06:57:17;3.50;;;2.10;;
47287;SDS011;33020;53.008;13.558;2022-12-29T06:59:44;5.13;;;2.10;;
47287;SDS011;33020;53.008;13.558;2022-12-29T07:02:10;2.43;;;1.73;;
47287;SDS011;33020;53.008;13.558;2022-12-29T07:04:39;2.57;;;1.87;;
47287;SDS011;33020;53.008;13.558;2022-12-29T07:07:06;3.97;;;2.20;;
47287;SDS011;33020;53.008;13.558;2022-12-29T07:09:33;3.20;;;1.80;;
47287;SDS011;33020;53.008;13.558;2022-12-29T07:12:00;1.83;;;1.50;;
47287;SDS011;33020;53.008;13.558;2022-12-29T07:14:27;2.33;;;1.80;;
47287;SDS011;33020;53.008;13.558;2022-12-29T07:16:53;3.27;;;1.53;;
47287;SDS011;33020;53.008;13.558;2022-12-29T07:19:20;3.33;;;1.80;;
47287;SDS011;33020;53.008;13.558;2022-12-29T07:21:47;2.10;;;1.50;;
47287;SDS011;33020;53.008;13.558;2022-12-29T07:24:16;2.17;;;1.50;;
47287;SDS011;33020;53.008;13.558;2022-12-29T07:26:43;3.00;;;1.70;;
47287;SDS011;33020;53.008;13.558;2022-12-29T07:29:09;3.13;;;1.60;;
47287;SDS011;33020;53.008;13.558;2022-12-29T07:31:36;3.23;;;2.10;;
47287;SDS011;33020;53.008;13.558;2022-12-29T07:34:03;2.20;;;1.57;;
47287;SDS011;33020;53.008;13.558;2022-12-29T07:36:29;3.27;;;1.70;;
47287;SDS011;33020;53.008;13.558;2022-12-29T07:39:00;2.63;;;1.60;;
47287;SDS011;33020;53.008;13.558;2022-12-29T07:41:27;3.93;;;2.03;;
47287;SDS011;33020;53.008;13.558;2022-12-29T07:43:53;2.33;;;1.80;;
47287;SDS011;33020;53.008;13.558;2022-12-29T07:46:20;2.83;;;1.60;;
47287;SDS011;33020;53.008;13.558;2022-12-29T07:49:07;2.50;;;1.90;;
47287;SDS011;33020;53.008;13.558;2022-12-29T07:51:33;2.13;;;1.57;;
47287;SDS011;33020;53.008;13.558;2022-12-29T07:54:00;2.20;;;1.60;;
47287;SDS011;33020;53.008;13.558;2022-12-29T07:56:27;2.73;;;1.60;;
47287;SDS011;33020;53.008;13.558;2022-12-29T07:58:56;2.43;;;1.70;;
47287;SDS011;33020;53.008;13.558;2022-12-29T08:01:23;3.30;;;1.70;;
47287;SDS011;33020;53.008;13.558;2022-12-29T08:03:50;3.47;;;1.57;;
47287;SDS011;33020;53.008;13.558;2022-12-29T08:06:22;3.20;;;1.90;;
47287;SDS011;33020;53.008;13.558;2022-12-29T08:08:49;2.10;;;1.50;;
47287;SDS011;33020;53.008;13.558;2022-12-29T08:11:16;3.60;;;1.90;;
47287;SDS011;33020;53.008;13.558;2022-12-29T08:13:42;2.33;;;1.50;;
47287;SDS011;33020;53.008;13.558;2022-12-29T08:16:09;3.63;;;2.03;;
47287;SDS011;33020;53.008;13.558;2022-12-29T08:18:36;2.77;;;1.40;;
47287;SDS011;33020;53.008;13.558;2022-12-29T08:21:03;2.17;;;1.30;;
47287;SDS011;33020;53.008;13.558;2022-12-29T08:23:30;1.97;;;1.50;;
47287;SDS011;33020;53.008;13.558;2022-12-29T08:26:00;2.55;;;1.50;;
47287;SDS011;33020;53.008;13.558;2022-12-29T08:28:29;3.67;;;1.60;;
47287;SDS011;33020;53.008;13.558;2022-12-29T08:30:59;2.40;;;1.15;;
47287;SDS011;33020;53.008;13.558;2022-12-29T08:33:27;2.80;;;1.33;;
47287;SDS011;33020;53.008;13.558;2022-12-29T08:36:01;2.10;;;1.55;;
47287;SDS011;33020;53.008;13.558;2022-12-29T08:38:29;2.40;;;1.40;;
47287;SDS011;33020;53.008;13.558;2022-12-29T08:40:57;2.30;;;1.58;;
47287;SDS011;33020;53.008;13.558;2022-12-29T08:43:24;1.80;;;1.40;;
47287;SDS011;33020;53.008;13.558;2022-12-29T08:45:51;3.35;;;1.70;;
47287;SDS011;33020;53.008;13.558;2022-12-29T08:48:18;2.13;;;1.60;;
47287;SDS011;33020;53.008;13.558;2022-12-29T08:50:46;2.88;;;2.50;;
47287;SDS011;33020;53.008;13.558;2022-12-29T08:53:12;3.17;;;2.30;;
47287;SDS011;33020;53.008;13.558;2022-12-29T08:55:39;2.17;;;2.00;;
47287;SDS011;33020;53.008;13.558;2022-12-29T08:58:06;3.17;;;1.70;;
47287;SDS011;33020;53.008;13.558;2022-12-29T09:00:32;2.30;;;2.10;;
47287;SDS011;33020;53.008;13.558;2022-12-29T09:02:59;2.28;;;1.33;;
47287;SDS011;33020;53.008;13.558;2022-12-29T09:05:26;3.00;;;1.63;;
47287;SDS011;33020;53.008;13.558;2022-12-29T09:07:52;1.90;;;1.48;;
47287;SDS011;33020;53.008;13.558;2022-12-29T09:10:19;2.90;;;1.63;;
47287;SDS011;33020;53.008;13.558;2022-12-29T09:12:46;2.00;;;1.60;;
47287;SDS011;33020;53.008;13.558;2022-12-29T09:15:14;2.53;;;1.45;;
47287;SDS011;33020;53.008;13.558;2022-12-29T09:17:41;2.05;;;1.30;;
47287;SDS011;33020;53.008;13.558;2022-12-29T09:20:12;2.55;;;1.95;;
47287;SDS011;33020;53.008;13.558;2022-12-29T09:22:40;2.40;;;1.98;;
47287;SDS011;33020;53.008;13.558;2022-12-29T09:25:07;2.08;;;1.73;;
47287;SDS011;33020;53.008;13.558;2022-12-29T09:27:35;3.40;;;1.83;;
47287;SDS011;33020;53.008;13.558;2022-12-29T09:30:03;3.92;;;1.40;;
47287;SDS011;33020;53.008;13.558;2022-12-29T09:32:32;2.05;;;1.30;;
47287;SDS011;33020;53.008;13.558;2022-12-29T09:35:01;2.63;;;2.40;;
47287;SDS011;33020;53.008;13.558;2022-12-29T09:37:28;4.38;;;3.97;;
47287;SDS011;33020;53.008;13.558;2022-12-29T09:39:54;2.13;;;1.65;;
47287;SDS011;33020;53.008;13.558;2022-12-29T09:48:03;3.47;;;2.20;;
47287;SDS011;33020;53.008;13.558;2022-12-29T09:50:35;3.97;;;2.85;;
47287;SDS011;33020;53.008;13.558;2022-12-29T09:55:55;4.10;;;3.10;;
47287;SDS011;33020;53.008;13.558;2022-12-29T09:58:30;3.88;;;3.17;;
47287;SDS011;33020;53.008;13.558;2022-12-29T10:04:10;2.38;;;1.85;;
47287;SDS011;33020;53.008;13.558;2022-12-29T10:12:25;2.03;;;1.70;;
47287;SDS011;33020;53.008;13.558;2022-12-29T10:25:41;2.92;;;2.08;;
47287;SDS011;33020;53.008;13.558;2022-12-29T10:28:17;2.80;;;2.17;;
47287;SDS011;33020;53.008;13.558;2022-12-29T10:30:48;4.13;;;3.15;;
47287;SDS011;33020;53.008;13.558;2022-12-29T10:33:17;2.97;;;1.70;;
47287;SDS011;33020;53.008;13.558;2022-12-29T10:35:47;1.58;;;1.30;;
47287;SDS011;33020;53.008;13.558;2022-12-29T10:41:00;2.15;;;1.48;;
47287;SDS011;33020;53.008;13.558;2022-12-29T10:43:37;1.75;;;1.45;;
47287;SDS011;33020;53.008;13.558;2022-12-29T10:46:12;2.78;;;1.23;;
47287;SDS011;33020;53.008;13.558;2022-12-29T10:48:40;2.63;;;1.40;;
47287;SDS011;33020;53.008;13.558;2022-12-29T10:51:11;1.48;;;1.35;;
47287;SDS011;33020;53.008;13.558;2022-12-29T10:54:08;2.28;;;1.52;;
47287;SDS011;33020;53.008;13.558;2022-12-29T10:56:39;4.25;;;1.50;;
47287;SDS011;33020;53.008;13.558;2022-12-29T10:59:14;2.47;;;1.15;;
47287;SDS011;33020;53.008;13.558;2022-12-29T11:07:17;1.75;;;1.50;;
47287;SDS011;33020;53.008;13.558;2022-12-29T11:09:52;3.47;;;1.38;;
47287;SDS011;33020;53.008;13.558;2022-12-29T11:14:47;1.90;;;1.55;;
47287;SDS011;33020;53.008;13.558;2022-12-29T11:17:15;8.98;;;4.38;;
47287;SDS011;33020;53.008;13.558;2022-12-29T11:19:43;29.00;;;12.32;;
47287;SDS011;33020;53.008;13.558;2022-12-29T11:22:20;4.43;;;3.05;;
47287;SDS011;33020;53.008;13.558;2022-12-29T11:24:49;8.48;;;5.95;;
47287;SDS011;33020;53.008;13.558;2022-12-29T11:27:18;3.95;;;3.28;;
47287;SDS011;33020;53.008;13.558;2022-12-29T11:29:49;5.68;;;5.20;;
47287;SDS011;33020;53.008;13.558;2022-12-29T11:32:21;17.17;;;10.95;;
47287;SDS011;33020;53.008;13.558;2022-12-29T11:34:55;21.13;;;10.82;;
47287;SDS011;33020;53.008;13.558;2022-12-29T11:37:26;7.55;;;4.30;;
47287;SDS011;33020;53.008;13.558;2022-12-29T11:40:06;3.25;;;2.67;;
47287;SDS011;33020;53.008;13.558;2022-12-29T11:42:46;3.08;;;1.77;;
47287;SDS011;33020;53.008;13.558;2022-12-29T11:45:25;1.52;;;1.35;;
47287;SDS011;33020;53.008;13.558;2022-12-29T11:47:55;3.10;;;1.50;;
47287;SDS011;33020;53.008;13.558;2022-12-29T11:50:42;2.45;;;1.30;;
47287;SDS011;33020;53.008;13.558;2022-12-29T11:53:17;1.58;;;1.13;;
47287;SDS011;33020;53.008;13.558;2022-12-29T11:56:05;1.45;;;1.08;;
47287;SDS011;33020;53.008;13.558;2022-12-29T11:58:34;3.08;;;2.55;;
47287;SDS011;33020;53.008;13.558;2022-12-29T12:01:07;3.47;;;1.20;;
47287;SDS011;33020;53.008;13.558;2022-12-29T12:03:40;2.05;;;1.15;;
47287;SDS011;33020;53.008;13.558;2022-12-29T12:06:14;1.13;;;1.02;;
47287;SDS011;33020;53.008;13.558;2022-12-29T12:08:53;6.38;;;4.75;;
47287;SDS011;33020;53.008;13.558;2022-12-29T12:16:28;1.90;;;1.63;;
47287;SDS011;33020;53.008;13.558;2022-12-29T12:21:30;3.05;;;1.33;;
47287;SDS011;33020;53.008;13.558;2022-12-29T12:29:51;1.00;;;0.90;;
47287;SDS011;33020;53.008;13.558;2022-12-29T12:35:11;2.42;;;1.05;;
47287;SDS011;33020;53.008;13.558;2022-12-29T12:37:50;2.60;;;1.30;;
47287;SDS011;33020;53.008;13.558;2022-12-29T12:40:34;2.10;;;1.20;;
47287;SDS011;33020;53.008;13.558;2022-12-29T12:49:04;2.90;;;1.50;;
47287;SDS011;33020;53.008;13.558;2022-12-29T12:52:08;3.33;;;1.70;;
47287;SDS011;33020;53.008;13.558;2022-12-29T12:54:52;2.00;;;1.30;;
47287;SDS011;33020;53.008;13.558;2022-12-29T12:57:35;2.08;;;1.50;;
47287;SDS011;33020;53.008;13.558;2022-12-29T13:00:07;6.30;;;2.65;;
47287;SDS011;33020;53.008;13.558;2022-12-29T13:05:29;2.70;;;1.98;;
47287;SDS011;33020;53.008;13.558;2022-12-29T13:32:43;3.95;;;3.15;;
47287;SDS011;33020;53.008;13.558;2022-12-29T13:35:28;3.40;;;2.30;;
47287;SDS011;33020;53.008;13.558;2022-12-29T13:40:53;3.08;;;1.50;;
47287;SDS011;33020;53.008;13.558;2022-12-29T13:43:22;3.30;;;1.65;;
47287;SDS011;33020;53.008;13.558;2022-12-29T13:45:52;1.90;;;1.52;;
47287;SDS011;33020;53.008;13.558;2022-12-29T13:50:57;3.33;;;1.60;;
47287;SDS011;33020;53.008;13.558;2022-12-29T13:56:09;1.98;;;1.10;;
47287;SDS011;33020;53.008;13.558;2022-12-29T14:01:42;4.85;;;3.50;;
47287;SDS011;33020;53.008;13.558;2022-12-29T14:04:13;3.33;;;2.58;;
47287;SDS011;33020;53.008;13.558;2022-12-29T14:06:40;2.63;;;1.63;;
47287;SDS011;33020;53.008;13.558;2022-12-29T14:09:32;2.53;;;1.45;;
47287;SDS011;33020;53.008;13.558;2022-12-29T14:12:40;1.88;;;1.20;;
47287;SDS011;33020;53.008;13.558;2022-12-29T14:17:35;3.42;;;1.30;;
47287;SDS011;33020;53.008;13.558;2022-12-29T14:20:02;1.88;;;1.30;;
47287;SDS011;33020;53.008;13.558;2022-12-29T14:22:30;1.35;;;1.20;;
47287;SDS011;33020;53.008;13.558;2022-12-29T14:24:59;1.63;;;1.10;;
47287;SDS011;33020;53.008;13.558;2022-12-29T14:29:56;1.77;;;1.05;;
47287;SDS011;33020;53.008;13.558;2022-12-29T14:34:53;1.25;;;0.93;;
47287;SDS011;33020;53.008;13.558;2022-12-29T14:37:24;1.00;;;0.90;;
47287;SDS011;33020;53.008;13.558;2022-12-29T14:42:29;3.08;;;1.60;;
47287;SDS011;33020;53.008;13.558;2022-12-29T14:45:26;3.90;;;2.35;;
47287;SDS011;33020;53.008;13.558;2022-12-29T14:47:54;3.93;;;2.20;;
47287;SDS011;33020;53.008;13.558;2022-12-29T14:52:59;2.60;;;1.40;;
47287;SDS011;33020;53.008;13.558;2022-12-29T14:55:45;2.70;;;1.30;;
47287;SDS011;33020;53.008;13.558;2022-12-29T14:58:14;2.10;;;1.40;;
47287;SDS011;33020;53.008;13.558;2022-12-29T15:00:44;4.87;;;1.93;;
47287;SDS011;33020;53.008;13.558;2022-12-29T15:14:03;2.97;;;2.77;;
47287;SDS011;33020;53.008;13.558;2022-12-29T15:16:30;2.87;;;2.23;;
47287;SDS011;33020;53.008;13.558;2022-12-29T15:18:59;4.57;;;1.90;;
47287;SDS011;33020;53.008;13.558;2022-12-29T15:21:30;1.87;;;1.60;;
47287;SDS011;33020;53.008;13.558;2022-12-29T15:23:58;2.03;;;1.00;;
47287;SDS011;33020;53.008;13.558;2022-12-29T15:26:39;4.27;;;2.60;;
47287;SDS011;33020;53.008;13.558;2022-12-29T15:34:42;2.03;;;1.10;;
47287;SDS011;33020;53.008;13.558;2022-12-29T15:37:20;1.40;;;1.10;;
47287;SDS011;33020;53.008;13.558;2022-12-29T15:39:52;2.83;;;1.73;;
47287;SDS011;33020;53.008;13.558;2022-12-29T15:42:26;2.07;;;1.00;;
47287;SDS011;33020;53.008;13.558;2022-12-29T15:44:58;1.40;;;0.93;;
47287;SDS011;33020;53.008;13.558;2022-12-29T15:47:36;1.30;;;1.10;;
47287;SDS011;33020;53.008;13.558;2022-12-29T15:50:04;2.70;;;1.20;;
47287;SDS011;33020;53.008;13.558;2022-12-29T15:52:33;1.93;;;1.53;;
47287;SDS011;33020;53.008;13.558;2022-12-29T15:55:00;2.77;;;1.20;;
47287;SDS011;33020;53.008;13.558;2022-12-29T15:57:28;2.23;;;0.93;;
47287;SDS011;33020;53.008;13.558;2022-12-29T15:59:58;3.90;;;1.20;;
47287;SDS011;33020;53.008;13.558;2022-12-29T16:02:26;1.73;;;1.00;;
47287;SDS011;33020;53.008;13.558;2022-12-29T16:04:54;7.50;;;1.90;;
47287;SDS011;33020;53.008;13.558;2022-12-29T16:07:41;1.10;;;1.00;;
47287;SDS011;33020;53.008;13.558;2022-12-29T16:10:25;1.87;;;1.27;;
47287;SDS011;33020;53.008;13.558;2022-12-29T16:12:52;3.57;;;1.30;;
47287;SDS011;33020;53.008;13.558;2022-12-29T16:15:19;2.30;;;1.30;;
47287;SDS011;33020;53.008;13.558;2022-12-29T16:17:50;1.67;;;1.20;;
47287;SDS011;33020;53.008;13.558;2022-12-29T16:20:20;1.97;;;1.20;;
47287;SDS011;33020;53.008;13.558;2022-12-29T16:22:49;1.50;;;1.10;;
47287;SDS011;33020;53.008;13.558;2022-12-29T16:27:51;3.15;;;1.10;;
47287;SDS011;33020;53.008;13.558;2022-12-29T16:30:20;4.40;;;1.20;;
47287;SDS011;33020;53.008;13.558;2022-12-29T16:32:57;2.00;;;1.20;;
47287;SDS011;33020;53.008;13.558;2022-12-29T16:35:25;1.70;;;1.07;;
47287;SDS011;33020;53.008;13.558;2022-12-29T16:38:20;1.23;;;1.03;;
47287;SDS011;33020;53.008;13.558;2022-12-29T16:40:49;1.40;;;1.13;;
47287;SDS011;33020;53.008;13.558;2022-12-29T16:43:30;1.57;;;1.37;;
47287;SDS011;33020;53.008;13.558;2022-12-29T16:51:39;2.20;;;1.30;;
47287;SDS011;33020;53.008;13.558;2022-12-29T16:54:06;4.03;;;1.50;;
47287;SDS011;33020;53.008;13.558;2022-12-29T16:56:46;3.37;;;1.27;;
47287;SDS011;33020;53.008;13.558;2022-12-29T16:59:33;1.40;;;0.90;;
47287;SDS011;33020;53.008;13.558;2022-12-29T17:02:05;1.50;;;0.97;;
47287;SDS011;33020;53.008;13.558;2022-12-29T17:04:34;1.67;;;0.93;;
47287;SDS011;33020;53.008;13.558;2022-12-29T17:07:00;1.60;;;1.00;;
47287;SDS011;33020;53.008;13.558;2022-12-29T17:09:27;1.80;;;1.00;;
47287;SDS011;33020;53.008;13.558;2022-12-29T17:11:55;2.33;;;0.97;;
47287;SDS011;33020;53.008;13.558;2022-12-29T17:17:17;2.00;;;0.93;;
47287;SDS011;33020;53.008;13.558;2022-12-29T17:19:46;1.97;;;1.37;;
47287;SDS011;33020;53.008;13.558;2022-12-29T17:22:16;6.07;;;3.20;;
47287;SDS011;33020;53.008;13.558;2022-12-29T17:24:44;4.87;;;3.27;;
47287;SDS011;33020;53.008;13.558;2022-12-29T17:27:22;1.90;;;1.60;;
47287;SDS011;33020;53.008;13.558;2022-12-29T17:29:55;3.07;;;1.47;;
47287;SDS011;33020;53.008;13.558;2022-12-29T17:32:24;1.60;;;1.10;;
47287;SDS011;33020;53.008;13.558;2022-12-29T17:34:51;2.80;;;1.47;;
47287;SDS011;33020;53.008;13.558;2022-12-29T17:39:51;2.07;;;1.27;;
47287;SDS011;33020;53.008;13.558;2022-12-29T17:42:18;1.63;;;1.10;;
47287;SDS011;33020;53.008;13.558;2022-12-29T17:44:45;2.47;;;1.60;;
47287;SDS011;33020;53.008;13.558;2022-12-29T17:47:12;3.93;;;1.80;;
47287;SDS011;33020;53.008;13.558;2022-12-29T17:49:41;4.40;;;1.80;;
47287;SDS011;33020;53.008;13.558;2022-12-29T17:52:12;2.30;;;1.27;;